Aviation Digital Data Service (ADDS)

Output produced by METARs form (1554 UTC 23 April 2017)
found at http://www.aviationweather.gov/adds/metars/
 
TAF SKBQ 231100Z 2312/2412 34010KT 9999 FEW017 SCT200 
     TEMPO 2312/2314 7000 VCFG SCT015 
     TEMPO 2315/2319 05012KT TX34/2318Z TN25/2311Z
       
TAF SKBO 231100Z 2312/2412 03007KT 9999 SCT020 SCT080 
     TEMPO 2315/2318 29006KT BKN020 SCT090 
     TEMPO 2320/2323 33014KT -RA SCT017CB 
     TEMPO 2404/2409 VRB02KT 8000 BKN020 TX21/2318Z TN10/2411Z
       
TAF SKBG 231100Z 2312/2412 VRB02KT 9999 FEW017 SCT080 
     BECMG 2315/2317 33010KT 
     TEMPO 2320/2322 7000 TSRA SCT015CB BKN070 
     TEMPO 2404/2409 00000KT 8000 VCFG SCT010 TX27/2318Z TN17/2411Z
       
TAF SKCL 231100Z 2312/2412 VRB02KT 9999 FEW020 SCT120 
     BECMG 2315/2317 32010KT 
     TEMPO 2321/2400 VCSH SCT020CB 
     TEMPO 2404/2409 8000 VCSH FEW020CB BKN120 TX33/2319Z TN19/2411Z
       
TAF SKCG 231100Z 2312/2412 03008KT 9999 FEW017 
     TEMPO 2312/2314 CAVOK 
     BECMG 2315/2317 33010KT 
     PROB40 
     TEMPO 2321/2401 VCSH SCT020CB 
     TEMPO 2404/2409 06005KT CAVOK TX33/2318Z TN25/2411Z
       
TAF SKCC 231100Z 2312/2412 VRB02KT 9999 FEW020 SCT080 
     TEMPO 2312/2314 8000 -DZ SCT015 BKN080 
     BECMG 2316/2318 33012KT 
     PROB40 2319/2322 VCSH SCT020TCU TX32/2318Z TN22/2311Z
       
TAF SKLT 231100Z 2312/2412 VRB02KT 9999 SCT015 SCT080 
     TEMPO 2312/2314 5000 BR DZ BKN015 BKN070 
     BECMG 2315/2317 BKN020 
     TEMPO 2320/2323 30009KT VCSH SCT020CB 
     TEMPO 2404/2409 00000KT 8000 BKN020 TX30/2318Z TN23/2411Z
       
TAF SKRG 231100Z 2312/2412 VRB02KT 9999 SCT020 SCT200 
     TEMPO 2312/2314 5000 BR BKN015 
     BECMG 2314/2316 10010KT SCT020 
     TEMPO 2322/2324 DZ SCT015CB BKN020 
     TEMPO 2404/2409 00000KT 8000 VCFG BKN015 TX23/2318Z TN13/2311Z
       
TAF SKPE 231100Z 2312/2412 11006KT 9999 FEW020 SCT200 
     BECMG 2314/2316 29008KT SCT020TCU 
     TEMPO 2320/2322 DZ SCT017CB BKN080 
     TEMPO 2404/2409 VRB02KT 8000 SCT015 TX29/2320Z TN18/2411Z
       
TAF SKSP 231100Z 2312/2412 VRB02KT 9999 FEW017 SCT200 
     PROB40 
     TEMPO 2316/2319 RA SCT017TCU BKN090 TX31/2319Z TN25/2311Z